sensor_id;sensor_type;location;lat;lon;timestamp;pressure;altitude;pressure_sealevel;temperature;humidity
63663;BME280;49815;51.618;0.336;2022-09-03T00:02:01;100147.84;;;19.23;47.71
63663;BME280;49815;51.618;0.336;2022-09-03T00:04:26;100147.39;;;19.75;47.06
63663;BME280;49815;51.618;0.336;2022-09-03T00:06:50;100145.63;;;19.79;46.93
63663;BME280;49815;51.618;0.336;2022-09-03T00:09:16;100142.22;;;19.04;46.96
63663;BME280;49815;51.618;0.336;2022-09-03T00:11:42;100138.38;;;19.64;46.73
63663;BME280;49815;51.618;0.336;2022-09-03T00:14:06;100139.06;;;19.19;46.92
63663;BME280;49815;51.618;0.336;2022-09-03T00:16:36;100136.18;;;19.34;46.62
63663;BME280;49815;51.618;0.336;2022-09-03T00:18:58;100140.23;;;19.53;46.55
63663;BME280;49815;51.618;0.336;2022-09-03T00:21:25;100133.75;;;19.44;46.85
63663;BME280;49815;51.618;0.336;2022-09-03T00:23:47;100129.40;;;19.41;46.99
63663;BME280;49815;51.618;0.336;2022-09-03T00:26:21;100125.53;;;19.02;47.08
63663;BME280;49815;51.618;0.336;2022-09-03T00:28:41;100128.81;;;18.96;47.07
63663;BME280;49815;51.618;0.336;2022-09-03T00:31:10;100127.63;;;19.17;47.01
63663;BME280;49815;51.618;0.336;2022-09-03T00:33:29;100126.74;;;19.19;47.07
63663;BME280;49815;51.618;0.336;2022-09-03T00:36:01;100124.30;;;19.14;46.76
63663;BME280;49815;51.618;0.336;2022-09-03T00:38:18;100121.56;;;19.06;47.30
63663;BME280;49815;51.618;0.336;2022-09-03T00:40:53;100118.75;;;18.75;47.01
63663;BME280;49815;51.618;0.336;2022-09-03T00:43:14;100117.44;;;18.83;47.15
63663;BME280;49815;51.618;0.336;2022-09-03T00:45:41;100116.21;;;18.81;47.28
63663;BME280;49815;51.618;0.336;2022-09-03T00:48:08;100116.97;;;18.86;47.64
63663;BME280;49815;51.618;0.336;2022-09-03T00:50:33;100114.68;;;18.57;48.23
63663;BME280;49815;51.618;0.336;2022-09-03T00:52:58;100111.68;;;18.65;47.86
63663;BME280;49815;51.618;0.336;2022-09-03T00:55:27;100110.48;;;18.41;47.14
63663;BME280;49815;51.618;0.336;2022-09-03T00:57:53;100113.40;;;19.13;47.12
63663;BME280;49815;51.618;0.336;2022-09-03T01:00:11;100118.22;;;18.68;46.76
63663;BME280;49815;51.618;0.336;2022-09-03T01:02:43;100122.69;;;19.03;46.66
63663;BME280;49815;51.618;0.336;2022-09-03T01:05:06;100124.28;;;18.68;46.72
63663;BME280;49815;51.618;0.336;2022-09-03T01:07:33;100125.28;;;19.00;46.57
63663;BME280;49815;51.618;0.336;2022-09-03T01:09:54;100125.60;;;18.61;48.20
63663;BME280;49815;51.618;0.336;2022-09-03T01:12:24;100123.16;;;18.21;47.99
63663;BME280;49815;51.618;0.336;2022-09-03T01:14:53;100120.44;;;18.34;47.26
63663;BME280;49815;51.618;0.336;2022-09-03T01:17:13;100117.79;;;17.98;47.55
63663;BME280;49815;51.618;0.336;2022-09-03T01:19:50;100116.56;;;18.25;47.92
63663;BME280;49815;51.618;0.336;2022-09-03T01:22:11;100115.70;;;18.42;47.42
63663;BME280;49815;51.618;0.336;2022-09-03T01:24:35;100117.79;;;18.03;47.10
63663;BME280;49815;51.618;0.336;2022-09-03T01:27:00;100117.60;;;18.29;47.52
63663;BME280;49815;51.618;0.336;2022-09-03T01:29:19;100118.76;;;18.05;47.42
63663;BME280;49815;51.618;0.336;2022-09-03T01:31:46;100118.81;;;18.14;47.46
63663;BME280;49815;51.618;0.336;2022-09-03T01:34:11;100116.96;;;17.74;47.99
63663;BME280;49815;51.618;0.336;2022-09-03T01:36:35;100117.08;;;17.81;48.32
63663;BME280;49815;51.618;0.336;2022-09-03T01:39:00;100118.94;;;18.01;48.10
63663;BME280;49815;51.618;0.336;2022-09-03T01:41:29;100119.26;;;17.78;47.98
63663;BME280;49815;51.618;0.336;2022-09-03T01:43:52;100116.59;;;18.08;47.78
63663;BME280;49815;51.618;0.336;2022-09-03T01:46:17;100117.63;;;17.83;47.45
63663;BME280;49815;51.618;0.336;2022-09-03T01:48:42;100114.25;;;17.77;47.67
63663;BME280;49815;51.618;0.336;2022-09-03T01:51:11;100111.73;;;17.65;47.57
63663;BME280;49815;51.618;0.336;2022-09-03T01:53:40;100110.99;;;17.84;47.57
63663;BME280;49815;51.618;0.336;2022-09-03T01:56:07;100111.44;;;17.89;47.75
63663;BME280;49815;51.618;0.336;2022-09-03T01:58:25;100109.45;;;17.84;47.51
63663;BME280;49815;51.618;0.336;2022-09-03T02:00:48;100104.45;;;17.59;47.61
63663;BME280;49815;51.618;0.336;2022-09-03T02:03:11;100105.62;;;17.58;47.38
63663;BME280;49815;51.618;0.336;2022-09-03T02:05:36;100105.56;;;17.52;47.85
63663;BME280;49815;51.618;0.336;2022-09-03T02:08:04;100104.74;;;17.45;48.24
63663;BME280;49815;51.618;0.336;2022-09-03T02:10:30;100108.61;;;17.28;48.02
63663;BME280;49815;51.618;0.336;2022-09-03T02:12:55;100108.18;;;17.34;48.05
63663;BME280;49815;51.618;0.336;2022-09-03T02:15:21;100109.07;;;17.15;48.13
63663;BME280;49815;51.618;0.336;2022-09-03T02:17:46;100106.16;;;17.54;48.12
63663;BME280;49815;51.618;0.336;2022-09-03T02:20:12;100105.96;;;17.01;48.01
63663;BME280;49815;51.618;0.336;2022-09-03T02:22:34;100106.98;;;17.49;47.67
63663;BME280;49815;51.618;0.336;2022-09-03T02:24:59;100108.45;;;17.45;48.06
63663;BME280;49815;51.618;0.336;2022-09-03T02:27:25;100103.68;;;17.09;49.41
63663;BME280;49815;51.618;0.336;2022-09-03T02:29:50;100101.69;;;16.35;51.90
63663;BME280;49815;51.618;0.336;2022-09-03T02:32:16;100100.27;;;15.96;52.26
63663;BME280;49815;51.618;0.336;2022-09-03T02:34:41;100102.48;;;16.73;50.87
63663;BME280;49815;51.618;0.336;2022-09-03T02:37:12;100102.38;;;17.06;49.96
63663;BME280;49815;51.618;0.336;2022-09-03T02:39:32;100103.14;;;17.37;49.54
63663;BME280;49815;51.618;0.336;2022-09-03T02:41:58;100104.53;;;17.73;48.91
63663;BME280;49815;51.618;0.336;2022-09-03T02:44:27;100104.97;;;18.06;48.70
63663;BME280;49815;51.618;0.336;2022-09-03T02:46:53;100103.47;;;18.22;48.30
63663;BME280;49815;51.618;0.336;2022-09-03T02:49:12;100106.29;;;17.55;48.75
63663;BME280;49815;51.618;0.336;2022-09-03T02:51:40;100101.47;;;18.51;48.45
63663;BME280;49815;51.618;0.336;2022-09-03T02:54:04;100100.44;;;18.10;48.33
63663;BME280;49815;51.618;0.336;2022-09-03T02:56:28;100104.04;;;17.97;48.22
63663;BME280;49815;51.618;0.336;2022-09-03T02:58:54;100103.84;;;18.33;47.76
63663;BME280;49815;51.618;0.336;2022-09-03T03:01:19;100104.95;;;18.29;47.73
63663;BME280;49815;51.618;0.336;2022-09-03T03:03:46;100108.85;;;18.26;47.85
63663;BME280;49815;51.618;0.336;2022-09-03T03:06:11;100110.29;;;17.88;47.64
63663;BME280;49815;51.618;0.336;2022-09-03T03:08:36;100108.82;;;17.73;47.43
63663;BME280;49815;51.618;0.336;2022-09-03T03:11:02;100104.68;;;17.59;47.72
63663;BME280;49815;51.618;0.336;2022-09-03T03:13:28;100106.16;;;17.69;47.65
63663;BME280;49815;51.618;0.336;2022-09-03T03:15:56;100105.93;;;17.66;47.68
63663;BME280;49815;51.618;0.336;2022-09-03T03:18:18;100104.40;;;17.70;47.94
63663;BME280;49815;51.618;0.336;2022-09-03T03:20:43;100106.53;;;17.52;47.28
63663;BME280;49815;51.618;0.336;2022-09-03T03:23:09;100104.54;;;17.67;47.57
63663;BME280;49815;51.618;0.336;2022-09-03T03:25:36;100104.65;;;17.35;48.68
63663;BME280;49815;51.618;0.336;2022-09-03T03:27:59;100103.38;;;17.28;47.67
63663;BME280;49815;51.618;0.336;2022-09-03T03:30:24;100105.04;;;17.52;47.81
63663;BME280;49815;51.618;0.336;2022-09-03T03:32:53;100106.38;;;17.57;47.70
63663;BME280;49815;51.618;0.336;2022-09-03T03:35:15;100109.69;;;17.38;47.66
63663;BME280;49815;51.618;0.336;2022-09-03T03:37:40;100109.79;;;17.54;48.45
63663;BME280;49815;51.618;0.336;2022-09-03T03:40:07;100109.92;;;17.29;49.42
63663;BME280;49815;51.618;0.336;2022-09-03T03:42:32;100110.82;;;17.31;50.21
63663;BME280;49815;51.618;0.336;2022-09-03T03:44:56;100112.00;;;17.42;49.86
63663;BME280;49815;51.618;0.336;2022-09-03T03:47:22;100109.02;;;17.75;49.40
63663;BME280;49815;51.618;0.336;2022-09-03T03:49:47;100107.38;;;17.84;48.76
63663;BME280;49815;51.618;0.336;2022-09-03T03:52:12;100109.62;;;17.89;49.39
63663;BME280;49815;51.618;0.336;2022-09-03T03:54:37;100107.34;;;18.21;48.93
63663;BME280;49815;51.618;0.336;2022-09-03T03:57:04;100103.49;;;17.98;48.61
63663;BME280;49815;51.618;0.336;2022-09-03T03:59:29;100107.21;;;17.75;48.70
63663;BME280;49815;51.618;0.336;2022-09-03T04:01:55;100107.40;;;18.03;48.54
63663;BME280;49815;51.618;0.336;2022-09-03T04:04:20;100103.69;;;18.10;48.63
63663;BME280;49815;51.618;0.336;2022-09-03T04:06:47;100102.17;;;18.35;47.98
63663;BME280;49815;51.618;0.336;2022-09-03T04:09:11;100104.13;;;18.26;47.92
63663;BME280;49815;51.618;0.336;2022-09-03T04:11:36;100105.33;;;18.15;48.51
63663;BME280;49815;51.618;0.336;2022-09-03T04:14:03;100104.99;;;18.32;48.58
63663;BME280;49815;51.618;0.336;2022-09-03T04:16:27;100104.35;;;18.09;48.57
63663;BME280;49815;51.618;0.336;2022-09-03T04:18:52;100100.06;;;18.17;48.42
63663;BME280;49815;51.618;0.336;2022-09-03T04:21:18;100100.08;;;18.52;48.28
63663;BME280;49815;51.618;0.336;2022-09-03T04:23:44;100096.70;;;18.88;48.00
63663;BME280;49815;51.618;0.336;2022-09-03T04:26:10;100093.42;;;18.27;48.19
63663;BME280;49815;51.618;0.336;2022-09-03T04:28:34;100091.96;;;18.47;48.30
63663;BME280;49815;51.618;0.336;2022-09-03T04:31:00;100089.90;;;18.52;48.34
63663;BME280;49815;51.618;0.336;2022-09-03T04:33:25;100092.20;;;18.41;48.50
63663;BME280;49815;51.618;0.336;2022-09-03T04:35:50;100093.38;;;18.33;48.42
63663;BME280;49815;51.618;0.336;2022-09-03T04:38:15;100090.18;;;17.99;48.32
63663;BME280;49815;51.618;0.336;2022-09-03T04:40:40;100087.60;;;17.90;48.37
63663;BME280;49815;51.618;0.336;2022-09-03T04:43:05;100085.63;;;18.26;48.41
63663;BME280;49815;51.618;0.336;2022-09-03T04:45:31;100085.36;;;18.45;48.21
63663;BME280;49815;51.618;0.336;2022-09-03T04:47:58;100084.84;;;18.46;48.44
63663;BME280;49815;51.618;0.336;2022-09-03T04:50:22;100081.73;;;18.25;48.13
63663;BME280;49815;51.618;0.336;2022-09-03T04:52:47;100078.26;;;18.40;48.14
63663;BME280;49815;51.618;0.336;2022-09-03T04:55:13;100073.31;;;18.06;48.42
63663;BME280;49815;51.618;0.336;2022-09-03T04:57:38;100070.58;;;18.46;48.72
63663;BME280;49815;51.618;0.336;2022-09-03T05:00:04;100066.95;;;18.63;48.81
63663;BME280;49815;51.618;0.336;2022-09-03T05:02:28;100059.57;;;18.30;48.46
63663;BME280;49815;51.618;0.336;2022-09-03T05:04:54;100050.41;;;17.85;49.63
63663;BME280;49815;51.618;0.336;2022-09-03T05:07:18;100054.02;;;17.42;51.06
63663;BME280;49815;51.618;0.336;2022-09-03T05:09:44;100050.37;;;17.97;50.08
63663;BME280;49815;51.618;0.336;2022-09-03T05:12:09;100047.80;;;17.60;50.37
63663;BME280;49815;51.618;0.336;2022-09-03T05:14:34;100051.81;;;18.30;49.90
63663;BME280;49815;51.618;0.336;2022-09-03T05:16:59;100056.80;;;18.17;49.49
63663;BME280;49815;51.618;0.336;2022-09-03T05:19:25;100055.46;;;18.50;49.40
63663;BME280;49815;51.618;0.336;2022-09-03T05:21:50;100060.87;;;18.44;48.85
63663;BME280;49815;51.618;0.336;2022-09-03T05:24:16;100066.55;;;18.83;48.49
63663;BME280;49815;51.618;0.336;2022-09-03T05:26:41;100070.58;;;18.11;49.13
63663;BME280;49815;51.618;0.336;2022-09-03T05:29:08;100068.01;;;18.44;49.29
63663;BME280;49815;51.618;0.336;2022-09-03T05:31:34;100064.39;;;18.31;48.94
63663;BME280;49815;51.618;0.336;2022-09-03T05:33:59;100065.10;;;18.06;49.00
63663;BME280;49815;51.618;0.336;2022-09-03T05:36:24;100068.62;;;18.73;48.96
63663;BME280;49815;51.618;0.336;2022-09-03T05:38:49;100073.16;;;18.80;49.02
63663;BME280;49815;51.618;0.336;2022-09-03T05:41:15;100070.37;;;18.85;48.62
63663;BME280;49815;51.618;0.336;2022-09-03T05:43:40;100072.47;;;18.45;48.53
63663;BME280;49815;51.618;0.336;2022-09-03T05:46:06;100074.05;;;17.99;48.69
63663;BME280;49815;51.618;0.336;2022-09-03T05:48:31;100072.61;;;18.71;48.54
63663;BME280;49815;51.618;0.336;2022-09-03T05:51:00;100076.13;;;18.82;48.13
63663;BME280;49815;51.618;0.336;2022-09-03T05:53:22;100077.54;;;19.00;48.07
63663;BME280;49815;51.618;0.336;2022-09-03T05:55:54;100078.99;;;18.61;48.28
63663;BME280;49815;51.618;0.336;2022-09-03T05:58:12;100080.78;;;18.82;48.41
63663;BME280;49815;51.618;0.336;2022-09-03T06:00:38;100082.93;;;18.90;47.66
63663;BME280;49815;51.618;0.336;2022-09-03T06:03:04;100080.07;;;19.68;46.81
63663;BME280;49815;51.618;0.336;2022-09-03T06:05:28;100084.69;;;20.24;45.60
63663;BME280;49815;51.618;0.336;2022-09-03T06:07:54;100087.38;;;20.88;44.28
63663;BME280;49815;51.618;0.336;2022-09-03T06:10:19;100090.33;;;21.14;43.78
63663;BME280;49815;51.618;0.336;2022-09-03T06:12:45;100091.80;;;21.01;44.38
63663;BME280;49815;51.618;0.336;2022-09-03T06:15:10;100091.68;;;20.72;44.40
63663;BME280;49815;51.618;0.336;2022-09-03T06:17:37;100096.64;;;21.13;43.76
63663;BME280;49815;51.618;0.336;2022-09-03T06:20:03;100099.84;;;21.16;43.35
63663;BME280;49815;51.618;0.336;2022-09-03T06:22:27;100105.18;;;21.33;42.60
63663;BME280;49815;51.618;0.336;2022-09-03T06:24:52;100106.02;;;21.98;42.23
63663;BME280;49815;51.618;0.336;2022-09-03T06:27:18;100108.52;;;20.99;43.16
63663;BME280;49815;51.618;0.336;2022-09-03T06:29:43;100112.48;;;21.05;43.40
63663;BME280;49815;51.618;0.336;2022-09-03T06:32:09;100113.12;;;20.33;43.38
63663;BME280;49815;51.618;0.336;2022-09-03T06:34:34;100115.56;;;20.63;43.34
63663;BME280;49815;51.618;0.336;2022-09-03T06:36:59;100114.01;;;20.95;43.40
63663;BME280;49815;51.618;0.336;2022-09-03T06:39:24;100119.66;;;20.35;44.11
63663;BME280;49815;51.618;0.336;2022-09-03T06:41:49;100123.75;;;20.90;44.72
63663;BME280;49815;51.618;0.336;2022-09-03T06:44:14;100128.02;;;20.74;44.29
63663;BME280;49815;51.618;0.336;2022-09-03T06:46:40;100125.36;;;20.45;45.06
63663;BME280;49815;51.618;0.336;2022-09-03T06:49:06;100120.82;;;20.93;45.45
63663;BME280;49815;51.618;0.336;2022-09-03T06:51:32;100115.95;;;22.39;42.42
63663;BME280;49815;51.618;0.336;2022-09-03T06:53:59;100109.99;;;23.67;39.73
63663;BME280;49815;51.618;0.336;2022-09-03T06:56:23;100107.82;;;24.26;37.76
63663;BME280;49815;51.618;0.336;2022-09-03T06:58:48;100105.93;;;25.47;34.90
63663;BME280;49815;51.618;0.336;2022-09-03T07:01:15;100110.49;;;25.84;33.88
63663;BME280;49815;51.618;0.336;2022-09-03T07:03:39;100113.89;;;25.96;34.15
63663;BME280;49815;51.618;0.336;2022-09-03T07:06:06;100118.34;;;24.90;34.36
63663;BME280;49815;51.618;0.336;2022-09-03T07:08:29;100122.96;;;24.12;35.93
63663;BME280;49815;51.618;0.336;2022-09-03T07:10:55;100119.60;;;23.64;37.13
63663;BME280;49815;51.618;0.336;2022-09-03T07:13:20;100118.60;;;22.93;37.48
63663;BME280;49815;51.618;0.336;2022-09-03T07:15:45;100115.67;;;22.96;38.99
63663;BME280;49815;51.618;0.336;2022-09-03T07:18:11;100116.13;;;22.54;38.61
63663;BME280;49815;51.618;0.336;2022-09-03T07:20:37;100114.39;;;22.93;38.02
63663;BME280;49815;51.618;0.336;2022-09-03T07:23:02;100114.27;;;22.72;38.46
63663;BME280;49815;51.618;0.336;2022-09-03T07:25:27;100112.72;;;23.09;38.24
63663;BME280;49815;51.618;0.336;2022-09-03T07:27:53;100115.44;;;23.19;37.84
63663;BME280;49815;51.618;0.336;2022-09-03T07:30:18;100118.12;;;23.18;38.27
63663;BME280;49815;51.618;0.336;2022-09-03T07:32:43;100115.84;;;22.78;38.47
63663;BME280;49815;51.618;0.336;2022-09-03T07:35:09;100121.35;;;22.28;39.09
63663;BME280;49815;51.618;0.336;2022-09-03T07:37:35;100126.55;;;21.92;39.49
63663;BME280;49815;51.618;0.336;2022-09-03T07:40:01;100128.08;;;21.77;40.24
63663;BME280;49815;51.618;0.336;2022-09-03T07:42:26;100126.83;;;21.96;40.39
63663;BME280;49815;51.618;0.336;2022-09-03T07:44:52;100128.10;;;22.51;39.92
63663;BME280;49815;51.618;0.336;2022-09-03T07:47:17;100130.87;;;22.23;40.08
63663;BME280;49815;51.618;0.336;2022-09-03T07:49:43;100131.60;;;22.76;39.23
63663;BME280;49815;51.618;0.336;2022-09-03T07:52:08;100131.55;;;22.85;39.43
63663;BME280;49815;51.618;0.336;2022-09-03T07:54:33;100134.46;;;23.12;38.67
63663;BME280;49815;51.618;0.336;2022-09-03T07:56:59;100135.79;;;23.23;38.17
63663;BME280;49815;51.618;0.336;2022-09-03T07:59:24;100136.17;;;23.87;38.86
63663;BME280;49815;51.618;0.336;2022-09-03T08:01:50;100136.77;;;24.53;38.43
63663;BME280;49815;51.618;0.336;2022-09-03T08:04:15;100139.68;;;24.00;38.28
63663;BME280;49815;51.618;0.336;2022-09-03T08:06:41;100143.34;;;23.70;38.22
63663;BME280;49815;51.618;0.336;2022-09-03T08:09:09;100145.43;;;23.35;38.09
63663;BME280;49815;51.618;0.336;2022-09-03T08:11:32;100149.03;;;23.38;38.84
63663;BME280;49815;51.618;0.336;2022-09-03T08:13:59;100152.40;;;23.32;39.01
63663;BME280;49815;51.618;0.336;2022-09-03T08:16:22;100151.94;;;23.94;38.87
63663;BME280;49815;51.618;0.336;2022-09-03T08:18:48;100158.53;;;23.25;40.19
63663;BME280;49815;51.618;0.336;2022-09-03T08:21:16;100162.13;;;22.73;39.88
63663;BME280;49815;51.618;0.336;2022-09-03T08:23:40;100166.26;;;22.40;41.11
63663;BME280;49815;51.618;0.336;2022-09-03T08:26:05;100166.83;;;22.68;40.02
63663;BME280;49815;51.618;0.336;2022-09-03T08:28:30;100161.05;;;23.23;39.20
63663;BME280;49815;51.618;0.336;2022-09-03T08:30:55;100164.34;;;23.53;38.96
63663;BME280;49815;51.618;0.336;2022-09-03T08:33:21;100165.54;;;23.67;38.50
63663;BME280;49815;51.618;0.336;2022-09-03T08:35:51;100163.31;;;23.47;38.49
63663;BME280;49815;51.618;0.336;2022-09-03T08:38:11;100165.42;;;23.50;38.05
63663;BME280;49815;51.618;0.336;2022-09-03T08:40:36;100167.08;;;23.71;38.42
63663;BME280;49815;51.618;0.336;2022-09-03T08:43:07;100166.90;;;23.96;38.57
63663;BME280;49815;51.618;0.336;2022-09-03T08:45:27;100167.41;;;23.66;38.57
63663;BME280;49815;51.618;0.336;2022-09-03T08:47:58;100169.22;;;23.68;39.23
63663;BME280;49815;51.618;0.336;2022-09-03T08:50:24;100168.50;;;23.66;38.34
63663;BME280;49815;51.618;0.336;2022-09-03T08:52:46;100170.44;;;23.69;38.92
63663;BME280;49815;51.618;0.336;2022-09-03T08:55:17;100170.95;;;23.88;38.43
63663;BME280;49815;51.618;0.336;2022-09-03T08:57:41;100172.94;;;23.13;39.48
63663;BME280;49815;51.618;0.336;2022-09-03T09:00:00;100174.20;;;23.39;39.51
63663;BME280;49815;51.618;0.336;2022-09-03T09:02:32;100172.40;;;23.22;39.11
63663;BME280;49815;51.618;0.336;2022-09-03T09:04:58;100172.88;;;23.89;38.81
63663;BME280;49815;51.618;0.336;2022-09-03T09:07:18;100171.79;;;23.80;38.71
63663;BME280;49815;51.618;0.336;2022-09-03T09:09:45;100174.88;;;24.17;38.66
63663;BME280;49815;51.618;0.336;2022-09-03T09:12:13;100174.12;;;24.07;38.66
63663;BME280;49815;51.618;0.336;2022-09-03T09:14:35;100173.34;;;23.70;38.80
63663;BME280;49815;51.618;0.336;2022-09-03T09:17:03;100171.85;;;23.96;38.40
63663;BME280;49815;51.618;0.336;2022-09-03T09:19:32;100173.07;;;24.53;38.07
63663;BME280;49815;51.618;0.336;2022-09-03T09:21:51;100171.06;;;24.34;37.46
63663;BME280;49815;51.618;0.336;2022-09-03T09:24:21;100167.23;;;25.03;37.22
63663;BME280;49815;51.618;0.336;2022-09-03T09:26:40;100163.74;;;24.74;36.78
63663;BME280;49815;51.618;0.336;2022-09-03T09:29:07;100158.31;;;24.54;37.07
63663;BME280;49815;51.618;0.336;2022-09-03T09:31:29;100157.52;;;25.46;36.87
63663;BME280;49815;51.618;0.336;2022-09-03T09:34:00;100154.39;;;25.15;36.66
63663;BME280;49815;51.618;0.336;2022-09-03T09:36:21;100152.67;;;25.86;36.22
63663;BME280;49815;51.618;0.336;2022-09-03T09:38:45;100155.51;;;25.61;35.57
63663;BME280;49815;51.618;0.336;2022-09-03T09:41:13;100155.54;;;25.94;35.45
63663;BME280;49815;51.618;0.336;2022-09-03T09:43:36;100159.83;;;26.56;34.71
63663;BME280;49815;51.618;0.336;2022-09-03T09:46:11;100156.82;;;26.17;34.37
63663;BME280;49815;51.618;0.336;2022-09-03T09:48:28;100158.85;;;27.37;34.36
63663;BME280;49815;51.618;0.336;2022-09-03T09:51:04;100154.43;;;27.49;32.81
63663;BME280;49815;51.618;0.336;2022-09-03T09:53:18;100153.15;;;27.88;32.28
63663;BME280;49815;51.618;0.336;2022-09-03T09:55:50;100160.03;;;27.65;32.61
63663;BME280;49815;51.618;0.336;2022-09-03T09:58:10;100157.84;;;26.86;32.56
63663;BME280;49815;51.618;0.336;2022-09-03T10:00:33;100152.49;;;27.25;32.46
63663;BME280;49815;51.618;0.336;2022-09-03T10:02:58;100154.95;;;27.11;32.51
63663;BME280;49815;51.618;0.336;2022-09-03T10:05:26;100158.40;;;26.95;32.92
63663;BME280;49815;51.618;0.336;2022-09-03T10:07:54;100158.17;;;26.65;34.13
63663;BME280;49815;51.618;0.336;2022-09-03T10:10:17;100157.06;;;25.44;35.24
63663;BME280;49815;51.618;0.336;2022-09-03T10:12:41;100166.71;;;24.75;36.36
63663;BME280;49815;51.618;0.336;2022-09-03T10:15:18;100165.40;;;24.86;36.03
63663;BME280;49815;51.618;0.336;2022-09-03T10:17:39;100165.98;;;25.36;35.70
63663;BME280;49815;51.618;0.336;2022-09-03T10:19:59;100165.17;;;25.21;35.62
63663;BME280;49815;51.618;0.336;2022-09-03T10:22:20;100162.98;;;25.06;35.86
63663;BME280;49815;51.618;0.336;2022-09-03T10:24:51;100159.26;;;25.29;35.84
63663;BME280;49815;51.618;0.336;2022-09-03T10:27:15;100161.51;;;24.99;34.71
63663;BME280;49815;51.618;0.336;2022-09-03T10:29:35;100157.39;;;25.33;34.11
63663;BME280;49815;51.618;0.336;2022-09-03T10:32:12;100154.52;;;25.96;34.46
63663;BME280;49815;51.618;0.336;2022-09-03T10:34:31;100149.01;;;25.32;34.06
63663;BME280;49815;51.618;0.336;2022-09-03T10:36:58;100149.60;;;26.29;33.59
63663;BME280;49815;51.618;0.336;2022-09-03T10:39:21;100148.54;;;25.49;33.81
63663;BME280;49815;51.618;0.336;2022-09-03T10:41:52;100151.21;;;25.56;34.29
63663;BME280;49815;51.618;0.336;2022-09-03T10:44:19;100154.16;;;25.54;33.86
63663;BME280;49815;51.618;0.336;2022-09-03T10:46:36;100159.72;;;26.68;33.33
63663;BME280;49815;51.618;0.336;2022-09-03T10:49:07;100157.24;;;26.45;32.75
63663;BME280;49815;51.618;0.336;2022-09-03T10:51:25;100158.07;;;25.68;33.98
63663;BME280;49815;51.618;0.336;2022-09-03T10:54:03;100157.80;;;25.47;34.02
63663;BME280;49815;51.618;0.336;2022-09-03T10:56:16;100156.64;;;25.84;34.63
63663;BME280;49815;51.618;0.336;2022-09-03T10:58:47;100157.25;;;25.96;33.70
63663;BME280;49815;51.618;0.336;2022-09-03T11:01:07;100161.67;;;26.80;32.88
63663;BME280;49815;51.618;0.336;2022-09-03T11:03:42;100160.23;;;26.65;32.93
63663;BME280;49815;51.618;0.336;2022-09-03T11:05:57;100156.01;;;26.50;32.23
63663;BME280;49815;51.618;0.336;2022-09-03T11:08:22;100156.31;;;26.37;32.73
63663;BME280;49815;51.618;0.336;2022-09-03T11:10:44;100157.68;;;27.07;32.32
63663;BME280;49815;51.618;0.336;2022-09-03T11:13:10;100165.11;;;26.01;32.33
63663;BME280;49815;51.618;0.336;2022-09-03T11:15:35;100160.52;;;26.15;33.15
63663;BME280;49815;51.618;0.336;2022-09-03T11:18:02;100159.38;;;25.98;33.16
63663;BME280;49815;51.618;0.336;2022-09-03T11:20:24;100157.38;;;26.09;32.72
63663;BME280;49815;51.618;0.336;2022-09-03T11:22:49;100156.20;;;26.10;33.08
63663;BME280;49815;51.618;0.336;2022-09-03T11:25:14;100157.31;;;26.49;32.46
63663;BME280;49815;51.618;0.336;2022-09-03T11:27:48;100158.05;;;26.40;32.54
63663;BME280;49815;51.618;0.336;2022-09-03T11:30:05;100156.34;;;26.13;33.11
63663;BME280;49815;51.618;0.336;2022-09-03T11:32:33;100155.84;;;25.42;33.49
63663;BME280;49815;51.618;0.336;2022-09-03T11:34:54;100155.65;;;25.89;33.76
63663;BME280;49815;51.618;0.336;2022-09-03T11:37:21;100155.17;;;25.81;33.40
63663;BME280;49815;51.618;0.336;2022-09-03T11:39:44;100154.82;;;25.79;32.99
63663;BME280;49815;51.618;0.336;2022-09-03T11:42:11;100148.86;;;26.12;32.72
63663;BME280;49815;51.618;0.336;2022-09-03T11:44:36;100148.15;;;25.94;33.01
63663;BME280;49815;51.618;0.336;2022-09-03T11:46:58;100147.08;;;26.47;32.31
63663;BME280;49815;51.618;0.336;2022-09-03T11:49:28;100145.68;;;27.64;31.24
63663;BME280;49815;51.618;0.336;2022-09-03T11:51:55;100143.05;;;26.84;31.65
63663;BME280;49815;51.618;0.336;2022-09-03T11:54:24;100149.23;;;26.87;31.92
63663;BME280;49815;51.618;0.336;2022-09-03T11:56:40;100146.01;;;27.45;31.40
63663;BME280;49815;51.618;0.336;2022-09-03T11:59:16;100144.31;;;26.82;31.28
63663;BME280;49815;51.618;0.336;2022-09-03T12:01:31;100140.20;;;27.24;30.88
63663;BME280;49815;51.618;0.336;2022-09-03T12:03:58;100146.72;;;27.01;31.24
63663;BME280;49815;51.618;0.336;2022-09-03T12:08:56;100137.50;;;27.85;30.86
63663;BME280;49815;51.618;0.336;2022-09-03T12:11:21;100136.23;;;27.80;30.04
63663;BME280;49815;51.618;0.336;2022-09-03T12:13:45;100137.78;;;28.10;30.20
63663;BME280;49815;51.618;0.336;2022-09-03T12:16:09;100140.34;;;28.12;29.40
63663;BME280;49815;51.618;0.336;2022-09-03T12:18:29;100141.42;;;27.94;29.42
63663;BME280;49815;51.618;0.336;2022-09-03T12:21:01;100140.97;;;28.00;30.24
63663;BME280;49815;51.618;0.336;2022-09-03T12:25:42;100142.88;;;27.82;29.20
63663;BME280;49815;51.618;0.336;2022-09-03T12:28:10;100144.15;;;27.23;29.74
63663;BME280;49815;51.618;0.336;2022-09-03T12:30:30;100147.20;;;27.29;29.63
63663;BME280;49815;51.618;0.336;2022-09-03T12:33:02;100146.59;;;27.05;30.06
63663;BME280;49815;51.618;0.336;2022-09-03T12:35:23;100146.70;;;27.03;30.18
63663;BME280;49815;51.618;0.336;2022-09-03T12:37:45;100145.73;;;27.14;30.10
63663;BME280;49815;51.618;0.336;2022-09-03T12:40:16;100145.04;;;27.43;29.61
63663;BME280;49815;51.618;0.336;2022-09-03T12:42:35;100145.21;;;27.23;30.20
63663;BME280;49815;51.618;0.336;2022-09-03T12:45:05;100141.31;;;28.29;29.76